Time;durP1;ratioP1;P1;durP2;ratioP2;P2;SDS_P1;SDS_P2;PMS_P1;PMS_P2;Temp;Humidity;BMP_temperature;BMP_pressure;BME280_temperature;BME280_humidity;BME280_pressure;Samples;Min_cycle;Max_cycle;Signal;HPM_P1;HPM_P2
2022/11/24 00:01:31;;;;;;;17.02;7.45;;;7.10;99.90;;;;;;4805050;29;20125;-87
2022/11/24 00:04:02;;;;;;;23.92;9.23;;;7.20;99.90;;;;;;4807904;29;20042;-85
2022/11/24 00:06:30;;;;;;;17.45;8.45;;;7.50;99.90;;;;;;4804209;29;20787;-85
2022/11/24 00:09:07;;;;;;;17.48;7.45;;;7.30;99.90;;;;;;4807431;29;20042;-85
2022/11/24 00:11:34;;;;;;;17.45;7.10;;;7.60;99.90;;;;;;4802733;29;20171;-85
2022/11/24 00:14:01;;;;;;;15.20;7.07;;;7.10;99.90;;;;;;4809860;29;20038;-85
2022/11/24 00:16:33;;;;;;;25.35;8.40;;;7.20;99.90;;;;;;4808130;29;20050;-86
2022/11/24 00:19:00;;;;;;;19.73;7.07;;;7.00;99.90;;;;;;4819586;29;20054;-85
2022/11/24 00:21:28;;;;;;;23.02;7.75;;;7.00;99.90;;;;;;4823913;29;20043;-85
2022/11/24 00:23:55;;;;;;;23.60;8.77;;;7.70;99.90;;;;;;4805040;29;20042;-87
2022/11/24 00:26:29;;;;;;;19.60;7.10;;;7.00;99.90;;;;;;4804125;29;20043;-85
2022/11/24 00:28:56;;;;;;;18.13;6.88;;;6.90;99.90;;;;;;4824280;29;20046;-85
2022/11/24 00:31:34;;;;;;;28.00;7.53;;;7.00;99.90;;;;;;4805215;29;20413;-85
2022/11/24 00:34:03;;;;;;;16.42;5.85;;;7.00;99.90;;;;;;4786687;29;20038;-84
2022/11/24 00:36:34;;;;;;;23.38;7.15;;;7.00;99.90;;;;;;4805367;29;20104;-85
2022/11/24 00:39:04;;;;;;;18.63;5.90;;;7.00;99.90;;;;;;4821562;29;20046;-85
2022/11/24 00:41:30;;;;;;;21.15;7.15;;;7.00;99.90;;;;;;4799484;29;20052;-85
2022/11/24 00:44:00;;;;;;;24.25;6.97;;;7.00;99.90;;;;;;4806413;29;20090;-85
2022/11/24 00:46:28;;;;;;;28.00;6.68;;;7.80;99.90;;;;;;4822414;29;20066;-85
2022/11/24 00:48:54;;;;;;;24.30;6.60;;;7.00;99.90;;;;;;4810270;29;20042;-85
2022/11/24 00:51:22;;;;;;;19.08;6.22;;;7.10;99.90;;;;;;4823171;29;20048;-84
2022/11/24 00:53:48;;;;;;;23.25;6.43;;;7.00;99.90;;;;;;4816342;29;20049;-85
2022/11/24 00:56:14;;;;;;;28.10;7.15;;;7.00;99.90;;;;;;4808306;29;20050;-85
2022/11/24 00:58:41;;;;;;;20.23;5.85;;;6.90;99.90;;;;;;4794878;29;20122;-85
2022/11/24 01:01:08;;;;;;;24.92;6.93;;;7.10;99.90;;;;;;4810381;29;20041;-84
2022/11/24 01:03:34;;;;;;;23.95;6.00;;;7.50;99.90;;;;;;4793723;29;20038;-86
2022/11/24 01:06:04;;;;;;;21.67;5.93;;;6.90;99.90;;;;;;4807913;29;20074;-85
2022/11/24 01:08:29;;;;;;;23.50;6.32;;;7.30;99.90;;;;;;4824838;29;20413;-85
2022/11/24 01:11:06;;;;;;;22.15;5.47;;;7.00;99.90;;;;;;4795905;29;20038;-85
2022/11/24 01:13:31;;;;;;;19.90;5.88;;;7.80;99.90;;;;;;4809009;29;20516;-85
2022/11/24 01:15:57;;;;;;;27.23;5.93;;;6.90;99.90;;;;;;4809884;29;20038;-87
2022/11/24 01:18:22;;;;;;;24.45;5.78;;;7.00;99.90;;;;;;4791542;29;20150;-85
2022/11/24 01:20:48;;;;;;;23.20;5.43;;;7.00;99.90;;;;;;4794392;29;20046;-85
2022/11/24 01:23:15;;;;;;;22.98;5.10;;;7.20;99.90;;;;;;4808117;29;20071;-85
2022/11/24 01:25:45;;;;;;;22.13;4.50;;;7.00;99.90;;;;;;4810690;29;20042;-85
2022/11/24 01:28:11;;;;;;;26.67;7.00;;;7.00;99.90;;;;;;4795694;29;20049;-85
2022/11/24 01:30:36;;;;;;;22.48;5.85;;;7.90;99.90;;;;;;4805653;29;20042;-86
2022/11/24 01:33:02;;;;;;;26.70;5.22;;;7.40;99.90;;;;;;4806453;29;20078;-86
2022/11/24 01:35:28;;;;;;;19.95;3.97;;;7.00;99.90;;;;;;4792615;29;20034;-85
2022/11/24 01:37:54;;;;;;;24.58;6.88;;;7.40;99.90;;;;;;4793142;29;20042;-85
2022/11/24 01:40:26;;;;;;;24.45;4.95;;;6.90;99.90;;;;;;4802886;29;20030;-85
2022/11/24 01:42:52;;;;;;;25.75;4.80;;;7.00;99.90;;;;;;4810019;29;20041;-85
2022/11/24 01:45:34;;;;;;;25.08;4.95;;;7.00;99.90;;;;;;4801155;29;20513;-85
2022/11/24 01:48:04;;;;;;;21.92;4.18;;;7.10;99.90;;;;;;4793804;29;20053;-85
2022/11/24 01:50:32;;;;;;;25.95;4.93;;;7.00;99.90;;;;;;4820841;29;20111;-84
2022/11/24 01:52:57;;;;;;;22.98;4.75;;;7.00;99.90;;;;;;4794583;29;20049;-85
2022/11/24 01:55:37;;;;;;;21.13;4.95;;;7.00;99.90;;;;;;4793881;29;20047;-85
2022/11/24 01:58:17;;;;;;;26.65;5.28;;;7.00;99.90;;;;;;4808640;29;20042;-84
2022/11/24 02:00:45;;;;;;;23.92;4.80;;;7.00;99.90;;;;;;4817421;29;20037;-84
2022/11/24 02:03:14;;;;;;;23.85;4.93;;;7.00;99.90;;;;;;4810248;29;20087;-84
2022/11/24 02:05:50;;;;;;;20.17;4.80;;;7.00;99.90;;;;;;4819757;29;20046;-85
2022/11/24 02:08:28;;;;;;;23.35;4.82;;;6.90;99.90;;;;;;4796605;29;20522;-85
2022/11/24 02:10:53;;;;;;;26.13;4.95;;;6.80;99.90;;;;;;4821670;29;20093;-84
2022/11/24 02:13:20;;;;;;;21.13;3.33;;;6.90;99.90;;;;;;4794451;29;20104;-85
2022/11/24 02:15:46;;;;;;;29.25;5.05;;;6.90;99.90;;;;;;4823231;29;20065;-86
2022/11/24 02:18:12;;;;;;;24.73;4.50;;;6.80;99.90;;;;;;4805227;29;20046;-86
2022/11/24 02:20:38;;;;;;;30.83;5.68;;;6.90;99.90;;;;;;4810569;29;20559;-85
2022/11/24 02:23:08;;;;;;;22.23;4.30;;;6.90;99.90;;;;;;4813230;29;20447;-84
2022/11/24 02:25:45;;;;;;;21.23;4.20;;;6.90;99.90;;;;;;4822286;29;20042;-85
2022/11/24 02:28:18;;;;;;;29.50;4.95;;;6.90;99.90;;;;;;4808571;29;20718;-84
2022/11/24 02:30:45;;;;;;;24.38;4.50;;;6.90;99.90;;;;;;4825835;29;20062;-85
2022/11/24 02:33:12;;;;;;;21.67;4.15;;;7.00;99.90;;;;;;4807163;29;20335;-84
2022/11/24 02:35:38;;;;;;;21.73;5.03;;;6.90;99.90;;;;;;4790055;29;20046;-85
2022/11/24 02:38:03;;;;;;;21.70;4.18;;;7.00;99.90;;;;;;4806675;29;20038;-85
2022/11/24 02:40:29;;;;;;;19.02;3.92;;;7.00;99.90;;;;;;4808595;29;20057;-87
2022/11/24 02:43:09;;;;;;;20.55;3.65;;;6.90;99.90;;;;;;4815416;29;20042;-86
2022/11/24 02:45:35;;;;;;;21.83;4.28;;;7.00;99.90;;;;;;4812017;29;20076;-85
2022/11/24 02:48:01;;;;;;;22.45;4.13;;;7.00;99.90;;;;;;4789269;29;20490;-85
2022/11/24 02:50:26;;;;;;;22.85;5.10;;;7.20;99.90;;;;;;4787710;29;20076;-86
2022/11/24 02:52:52;;;;;;;25.73;4.70;;;7.00;99.90;;;;;;4806276;29;20125;-85
2022/11/24 02:55:19;;;;;;;20.38;5.00;;;7.00;99.90;;;;;;4808257;29;20569;-86
2022/11/24 02:57:49;;;;;;;22.08;4.10;;;7.20;99.90;;;;;;4811636;29;20134;-85
2022/11/24 03:00:16;;;;;;;21.65;3.78;;;7.00;99.90;;;;;;4807306;29;20148;-84
2022/11/24 03:02:41;;;;;;;28.90;4.53;;;7.10;99.90;;;;;;4790677;29;20146;-85
2022/11/24 03:05:07;;;;;;;21.48;4.50;;;7.60;99.90;;;;;;4824170;29;20070;-84
2022/11/24 03:07:39;;;;;;;21.80;3.63;;;7.20;99.90;;;;;;4810218;29;20042;-84
2022/11/24 03:10:05;;;;;;;28.70;4.68;;;7.10;99.90;;;;;;4790790;29;20039;-85
2022/11/24 03:12:31;;;;;;;22.42;3.90;;;7.20;99.90;;;;;;4805640;29;20053;-85
2022/11/24 03:14:56;;;;;;;19.05;3.45;;;7.30;99.90;;;;;;4807098;29;20050;-84
2022/11/24 03:17:22;;;;;;;28.52;4.53;;;7.40;99.90;;;;;;4797714;29;20086;-85
2022/11/24 03:20:01;;;;;;;30.80;3.75;;;7.40;99.90;;;;;;4809311;29;20042;-85
2022/11/24 03:22:27;;;;;;;18.10;3.70;;;8.30;99.90;;;;;;4806752;29;20056;-85
2022/11/24 03:24:52;;;;;;;17.00;3.97;;;7.70;99.90;;;;;;4793095;29;20042;-85
2022/11/24 03:27:18;;;;;;;23.73;4.95;;;8.10;99.90;;;;;;4797368;29;20042;-85
2022/11/24 03:29:43;;;;;;;19.50;4.22;;;7.50;99.90;;;;;;4807672;29;20106;-85
2022/11/24 03:32:10;;;;;;;21.38;3.35;;;7.50;99.90;;;;;;4791049;29;20038;-86
2022/11/24 03:34:39;;;;;;;24.02;5.03;;;7.70;99.90;;;;;;4790685;29;20054;-85
2022/11/24 03:37:05;;;;;;;25.63;4.32;;;7.60;99.90;;;;;;4806920;29;20429;-84
2022/11/24 03:39:30;;;;;;;21.52;3.60;;;7.50;99.90;;;;;;4794337;29;20084;-85
2022/11/24 03:41:56;;;;;;;21.70;4.20;;;7.40;99.90;;;;;;4819134;29;20061;-84
2022/11/24 03:44:21;;;;;;;23.77;3.97;;;7.40;99.90;;;;;;4796821;29;20072;-85
2022/11/24 03:46:50;;;;;;;21.45;4.88;;;8.20;99.90;;;;;;4789796;29;20549;-84
2022/11/24 03:49:16;;;;;;;16.35;3.65;;;7.40;99.90;;;;;;4805841;29;21641;-85
2022/11/24 03:51:42;;;;;;;22.65;3.35;;;7.30;99.90;;;;;;4810720;29;20034;-85
2022/11/24 03:54:08;;;;;;;20.52;4.45;;;7.60;99.90;;;;;;4807574;29;20042;-84
2022/11/24 03:56:34;;;;;;;22.73;3.58;;;7.30;99.90;;;;;;4810700;29;20043;-84
2022/11/24 03:58:59;;;;;;;26.05;3.72;;;7.60;99.90;;;;;;4795334;29;20042;-84
2022/11/24 04:01:26;;;;;;;26.25;4.30;;;7.30;99.90;;;;;;4806208;29;20073;-84
2022/11/24 04:03:56;;;;;;;20.67;3.22;;;7.20;99.90;;;;;;4820566;29;20042;-87
2022/11/24 04:06:22;;;;;;;19.02;3.80;;;7.20;99.90;;;;;;4793138;29;20034;-85
2022/11/24 04:08:47;;;;;;;25.83;4.25;;;7.20;99.90;;;;;;4811106;29;20448;-85
2022/11/24 04:12:42;;;;;;;15.90;2.63;;;7.20;99.90;;;;;;4805671;29;20125;-85
2022/11/24 04:13:59;;;;;;;24.13;4.13;;;7.20;99.90;;;;;;4804930;29;20125;-85
2022/11/24 04:16:24;;;;;;;19.85;3.05;;;7.10;99.90;;;;;;4807997;29;20134;-84
2022/11/24 04:18:53;;;;;;;20.08;3.97;;;7.10;99.90;;;;;;4808349;29;20050;-85
2022/11/24 04:21:19;;;;;;;16.38;3.67;;;7.20;99.90;;;;;;4795254;29;20050;-85
2022/11/24 04:23:45;;;;;;;16.20;3.10;;;7.20;99.90;;;;;;4812832;29;20042;-85
2022/11/24 04:26:11;;;;;;;23.10;4.05;;;7.20;99.90;;;;;;4797058;29;20111;-85
2022/11/24 04:28:37;;;;;;;20.77;3.30;;;7.10;99.90;;;;;;4822910;29;20049;-84
2022/11/24 04:31:04;;;;;;;18.80;4.18;;;7.10;99.90;;;;;;4791654;29;20042;-84
2022/11/24 04:33:30;;;;;;;17.67;3.35;;;7.10;99.90;;;;;;4809008;29;20046;-85
2022/11/24 04:35:55;;;;;;;19.63;2.80;;;7.10;99.90;;;;;;4808865;29;20042;-85
2022/11/24 04:38:23;;;;;;;22.67;4.03;;;7.10;99.90;;;;;;4794589;29;20046;-84
2022/11/24 04:40:49;;;;;;;19.88;2.35;;;7.00;99.90;;;;;;4791074;29;20098;-84
2022/11/24 04:43:18;;;;;;;20.13;3.70;;;7.30;99.90;;;;;;4805877;29;20047;-85
2022/11/24 04:45:44;;;;;;;20.73;3.05;;;7.00;99.90;;;;;;4821948;29;20046;-87
2022/11/24 04:48:09;;;;;;;16.05;2.53;;;7.00;99.90;;;;;;4822076;29;20065;-84
2022/11/24 04:50:36;;;;;;;20.63;3.38;;;7.00;99.90;;;;;;4794347;29;20168;-84
2022/11/24 04:53:12;;;;;;;21.25;2.90;;;6.90;99.90;;;;;;4809212;29;20151;-84
2022/11/24 05:03:10;;;;;;;14.57;3.88;;;7.00;99.90;;;;;;4785551;29;20061;-88
2022/11/24 05:05:47;;;;;;;16.10;2.55;;;6.90;99.90;;;;;;4784923;29;20087;-87
2022/11/24 05:08:20;;;;;;;14.38;2.72;;;6.80;99.90;;;;;;4772089;29;20047;-88
2022/11/24 05:11:52;;;;;;;22.60;3.97;;;6.80;99.90;;;;;;4783422;29;20059;-88
2022/11/24 05:14:20;;;;;;;21.20;3.50;;;6.80;99.90;;;;;;4752108;29;20064;-86
2022/11/24 05:16:53;;;;;;;22.05;3.72;;;6.70;99.90;;;;;;4769537;29;20051;-86
2022/11/24 05:19:21;;;;;;;15.27;2.83;;;6.50;99.90;;;;;;4768514;29;20116;-85
2022/11/24 05:22:04;;;;;;;18.40;3.03;;;6.70;99.90;;;;;;4788918;29;20154;-84
2022/11/24 05:24:30;;;;;;;15.77;3.15;;;6.60;99.90;;;;;;4822688;29;20523;-85
2022/11/24 05:27:07;;;;;;;12.32;2.80;;;7.60;99.90;;;;;;4806617;29;20046;-87
2022/11/24 05:29:42;;;;;;;15.25;2.35;;;6.60;99.90;;;;;;4808986;29;20126;-88
2022/11/24 05:32:09;;;;;;;16.52;2.80;;;6.60;99.90;;;;;;4787455;29;20521;-87
2022/11/24 05:34:47;;;;;;;25.65;3.63;;;6.60;99.90;;;;;;4805725;29;20053;-86
2022/11/24 05:37:13;;;;;;;19.17;3.75;;;6.60;99.90;;;;;;4807528;29;20038;-87
2022/11/24 05:39:46;;;;;;;19.60;3.28;;;6.60;99.90;;;;;;4800151;29;20082;-86
2022/11/24 05:45:02;;;;;;;20.88;2.92;;;7.00;99.90;;;;;;4820909;29;20060;-86
2022/11/24 05:48:13;;;;;;;20.00;2.72;;;6.60;99.90;;;;;;4792248;29;20050;-87
2022/11/24 05:51:22;;;;;;;16.23;2.60;;;6.70;99.90;;;;;;4817715;29;20118;-87
2022/11/24 05:54:05;;;;;;;18.23;3.03;;;6.60;99.90;;;;;;4805269;29;20042;-88
2022/11/24 05:56:33;;;;;;;17.67;3.47;;;6.60;99.90;;;;;;4790488;29;20053;-88
2022/11/24 05:58:59;;;;;;;19.20;2.53;;;6.60;99.90;;;;;;4805429;29;20038;-87
2022/11/24 06:01:25;;;;;;;22.50;2.95;;;6.60;99.90;;;;;;4790427;29;20042;-88
2022/11/24 06:03:51;;;;;;;16.15;2.92;;;6.70;99.90;;;;;;4780647;29;20129;-88
2022/11/24 06:06:16;;;;;;;17.17;3.13;;;6.70;99.90;;;;;;4820888;29;20125;-88
2022/11/24 06:08:50;;;;;;;18.05;3.63;;;6.60;99.90;;;;;;4807525;29;20038;-88
2022/11/24 06:11:55;;;;;;;22.15;3.80;;;7.10;99.90;;;;;;4804760;29;20047;-89
2022/11/24 06:14:44;;;;;;;19.67;2.83;;;6.60;99.90;;;;;;4730780;29;20525;-88
2022/11/24 06:17:13;;;;;;;21.77;3.75;;;6.60;99.90;;;;;;4767071;29;20059;-89
2022/11/24 06:19:48;;;;;;;19.95;3.30;;;6.70;99.90;;;;;;4801739;29;20054;-88
2022/11/24 06:22:14;;;;;;;18.35;2.80;;;7.50;99.90;;;;;;4804309;29;20090;-88
2022/11/24 06:24:41;;;;;;;20.05;2.92;;;6.70;99.90;;;;;;4808243;29;20122;-86
2022/11/24 06:27:06;;;;;;;22.38;3.97;;;6.70;99.90;;;;;;4820474;29;20053;-90
2022/11/24 06:29:32;;;;;;;19.95;3.28;;;6.60;99.90;;;;;;4790866;29;20038;-87
2022/11/24 06:31:57;;;;;;;27.48;4.32;;;6.70;99.90;;;;;;4787665;29;20052;-87
2022/11/24 06:34:23;;;;;;;17.73;2.75;;;6.80;99.90;;;;;;4804195;29;20042;-86
2022/11/24 06:36:48;;;;;;;23.15;3.50;;;6.70;99.90;;;;;;4788381;29;20057;-87
2022/11/24 06:39:14;;;;;;;16.63;2.95;;;6.80;99.90;;;;;;4787724;29;20061;-87
2022/11/24 06:41:40;;;;;;;19.30;2.78;;;6.70;99.90;;;;;;4790003;29;20838;-86
2022/11/24 06:58:54;;;;;;;18.92;3.30;;;6.70;99.90;;;;;;4814986;29;20030;-85
2022/11/24 07:01:32;;;;;;;21.83;3.15;;;6.70;99.90;;;;;;4806184;29;20102;-84
2022/11/24 07:04:31;;;;;;;21.48;3.30;;;6.70;99.90;;;;;;4803739;29;20107;-86
2022/11/24 07:07:06;;;;;;;18.75;3.30;;;6.70;99.90;;;;;;4805464;29;20053;-87
2022/11/24 07:09:53;;;;;;;15.52;3.00;;;6.70;99.90;;;;;;4787598;29;20049;-86
2022/11/24 07:12:18;;;;;;;20.35;3.65;;;6.70;99.90;;;;;;4786557;29;20129;-87
2022/11/24 07:14:44;;;;;;;15.27;3.83;;;6.70;99.90;;;;;;4801040;29;20550;-86
2022/11/24 07:17:15;;;;;;;13.00;3.63;;;6.70;99.90;;;;;;4804170;29;20869;-86
2022/11/24 07:19:40;;;;;;;19.00;3.67;;;6.70;99.90;;;;;;4808489;29;20050;-88
2022/11/24 07:22:19;;;;;;;21.08;3.30;;;6.70;99.90;;;;;;4808941;29;20188;-87
2022/11/24 07:24:58;;;;;;;19.00;4.60;;;7.10;99.90;;;;;;4808740;29;20819;-86
2022/11/24 07:27:27;;;;;;;23.30;4.30;;;6.80;99.90;;;;;;4801617;29;20053;-87
2022/11/24 07:34:27;;;;;;;16.45;3.08;;;6.90;99.90;;;;;;4817148;29;20038;-89
2022/11/24 07:37:53;;;;;;;24.50;4.38;;;7.00;99.90;;;;;;4741409;30;20060;-89
2022/11/24 07:41:00;;;;;;;17.92;4.35;;;7.00;99.90;;;;;;4732820;30;20055;-88
2022/11/24 08:51:17;;;;;;;12.63;3.10;;;8.00;99.90;;;;;;4806338;29;20188;-87
2022/11/24 08:53:43;;;;;;;11.35;3.30;;;8.00;99.90;;;;;;4787504;29;20210;-86
2022/11/24 09:22:22;;;;;;;6.63;1.90;;;8.30;99.90;;;;;;4814782;29;20118;-87
2022/11/24 09:28:39;;;;;;;7.93;2.03;;;8.30;99.90;;;;;;4812169;29;20049;-87
2022/11/24 10:01:30;;;;;;;3.88;1.35;;;8.60;99.90;;;;;;4816914;29;20103;-88
2022/11/24 10:08:23;;;;;;;4.78;1.50;;;8.70;99.90;;;;;;4832553;29;20068;-86
2022/11/24 10:15:17;;;;;;;3.33;2.00;;;8.90;99.90;;;;;;4820413;29;20579;-88
2022/11/24 10:23:09;;;;;;;6.03;2.47;;;9.00;99.90;;;;;;4819153;29;20110;-87
2022/11/24 10:25:41;;;;;;;7.78;2.35;;;9.10;99.90;;;;;;4781795;29;20078;-88
2022/11/24 10:29:09;;;;;;;4.50;2.20;;;9.10;99.90;;;;;;4807955;29;20030;-87
2022/11/24 10:31:54;;;;;;;7.50;3.45;;;9.20;99.90;;;;;;4769719;30;20050;-85
2022/11/24 10:34:53;;;;;;;6.05;3.17;;;9.20;99.90;;;;;;4774562;29;20237;-87
2022/11/24 10:37:54;;;;;;;18.02;4.05;;;9.20;99.90;;;;;;4784167;29;20076;-87
2022/11/24 10:40:45;;;;;;;7.50;3.42;;;9.30;99.90;;;;;;4805202;29;20058;-87
2022/11/24 10:43:12;;;;;;;12.50;3.53;;;9.40;99.90;;;;;;4804354;29;20035;-88
2022/11/24 10:45:45;;;;;;;9.07;3.22;;;9.50;99.90;;;;;;4807481;29;20324;-86
2022/11/24 10:48:24;;;;;;;7.43;2.97;;;9.60;99.90;;;;;;4807969;29;20096;-86
2022/11/24 10:50:56;;;;;;;9.40;3.38;;;9.80;99.90;;;;;;4813223;29;20042;-85
2022/11/24 10:53:34;;;;;;;8.80;2.88;;;9.90;99.90;;;;;;4806510;29;20402;-87
2022/11/24 10:56:03;;;;;;;4.40;3.10;;;10.00;99.90;;;;;;4791494;29;20417;-86
2022/11/24 10:58:34;;;;;;;10.40;4.18;;;10.00;99.90;;;;;;4814011;29;20493;-87
2022/11/24 11:01:12;;;;;;;7.68;3.75;;;10.10;99.90;;;;;;4806773;29;20080;-87
2022/11/24 11:04:19;;;;;;;4.60;2.88;;;10.30;99.90;;;;;;4823456;29;20436;-88
2022/11/24 11:06:45;;;;;;;10.93;3.72;;;10.40;99.90;;;;;;4803720;29;20052;-90
2022/11/24 11:09:34;;;;;;;4.80;2.85;;;10.60;99.90;;;;;;4792768;29;20053;-87
2022/11/24 11:12:17;;;;;;;7.78;3.20;;;10.80;99.90;;;;;;4806009;29;20045;-86
2022/11/24 11:14:47;;;;;;;6.80;3.45;;;11.00;99.90;;;;;;4806420;29;20038;-87
2022/11/24 11:17:37;;;;;;;6.93;3.13;;;11.60;99.90;;;;;;4807926;29;20047;-88
2022/11/24 11:20:17;;;;;;;7.32;3.55;;;11.40;99.90;;;;;;4794243;29;20069;-90
2022/11/24 11:26:26;;;;;;;7.70;3.05;;;11.80;99.90;;;;;;4815256;29;20121;-85
2022/11/24 11:29:36;;;;;;;6.85;3.28;;;11.90;99.90;;;;;;4819814;29;20103;-85
2022/11/24 11:32:49;;;;;;;10.57;3.55;;;12.00;99.90;;;;;;4801871;29;20126;-85
2022/11/24 11:39:36;;;;;;;8.88;2.55;;;12.10;99.90;;;;;;4822616;29;20065;-84
2022/11/24 11:42:45;;;;;;;13.02;3.78;;;12.10;99.90;;;;;;4803576;29;20115;-86
2022/11/24 11:46:44;;;;;;;6.30;2.70;;;12.10;99.90;;;;;;4805611;29;20120;-85
2022/11/24 14:17:30;;;;;;;15.70;2.72;;;10.80;99.90;;;;;;4819309;29;20061;-83
2022/11/24 14:20:27;;;;;;;15.25;2.67;;;10.70;99.90;;;;;;4804842;29;20098;-83
2022/11/24 14:23:52;;;;;;;14.18;2.63;;;10.70;99.90;;;;;;4805625;29;20050;-83
2022/11/24 14:26:39;;;;;;;12.82;2.65;;;10.50;99.90;;;;;;4815141;29;20057;-82
2022/11/24 14:29:20;;;;;;;13.27;2.75;;;10.70;99.90;;;;;;4804817;29;20102;-82
2022/11/24 14:31:53;;;;;;;16.30;2.90;;;10.60;99.90;;;;;;4819355;29;20069;-83
2022/11/24 14:34:35;;;;;;;16.50;2.85;;;10.50;99.90;;;;;;4810388;29;20056;-83
2022/11/24 14:37:02;;;;;;;14.35;2.95;;;10.50;99.90;;;;;;4816495;29;20042;-81
2022/11/24 14:40:00;;;;;;;16.10;3.22;;;10.40;99.90;;;;;;4817131;29;20097;-86
2022/11/24 14:42:27;;;;;;;13.73;3.50;;;10.40;99.90;;;;;;4798873;29;20043;-85
2022/11/24 14:49:22;;;;;;;11.07;2.42;;;10.30;99.90;;;;;;4817208;29;20056;-84
2022/11/24 14:52:38;;;;;;;12.15;2.58;;;10.20;99.90;;;;;;4798133;29;20051;-87
2022/11/24 14:55:04;;;;;;;13.13;2.97;;;10.20;99.90;;;;;;4794865;29;20280;-85
2022/11/24 15:01:50;;;;;;;15.70;2.75;;;10.10;99.90;;;;;;4800731;29;20211;-87
2022/11/24 15:05:23;;;;;;;15.70;3.72;;;10.00;99.90;;;;;;4780364;29;20174;-86
2022/11/24 15:08:25;;;;;;;12.63;2.92;;;10.00;99.90;;;;;;4732866;30;20095;-87
2022/11/24 15:11:10;;;;;;;16.38;3.30;;;9.90;99.90;;;;;;4799040;29;20050;-84
2022/11/24 15:13:56;;;;;;;17.25;4.32;;;9.80;99.90;;;;;;4804519;29;20050;-85
2022/11/24 15:16:45;;;;;;;15.15;4.05;;;9.70;99.90;;;;;;4816932;29;20058;-86
2022/11/24 15:19:53;;;;;;;16.52;3.13;;;9.60;99.90;;;;;;4802960;29;20057;-85
2022/11/24 15:23:26;;;;;;;14.55;2.70;;;9.60;99.90;;;;;;4810834;29;20076;-85
2022/11/24 15:26:23;;;;;;;20.55;3.90;;;9.50;99.90;;;;;;4765660;29;20126;-87
2022/11/24 15:35:56;;;;;;;19.80;3.17;;;9.20;99.90;;;;;;4790295;29;20219;-85
2022/11/24 15:38:45;;;;;;;13.70;3.17;;;9.20;99.90;;;;;;4776333;29;20493;-84
2022/11/24 15:41:20;;;;;;;18.45;3.45;;;9.10;99.90;;;;;;4777493;29;20097;-86
2022/11/24 15:44:15;;;;;;;13.52;3.22;;;9.00;99.90;;;;;;4783397;29;20554;-85
2022/11/24 15:46:47;;;;;;;15.27;2.83;;;9.10;99.90;;;;;;4782957;29;20069;-85
2022/11/24 15:49:18;;;;;;;11.98;2.53;;;9.00;99.90;;;;;;4783177;29;20174;-86
2022/11/24 15:52:27;;;;;;;12.13;2.63;;;9.10;99.90;;;;;;4781167;29;20051;-84
2022/11/24 15:55:42;;;;;;;17.38;3.40;;;8.90;99.90;;;;;;4783695;29;20108;-85
2022/11/24 15:58:38;;;;;;;12.70;3.05;;;9.10;99.90;;;;;;4766379;29;20063;-85
2022/11/24 16:28:22;;;;;;;11.82;2.92;;;8.50;99.90;;;;;;4724277;30;20739;-84
2022/11/24 16:30:49;;;;;;;15.63;3.33;;;8.40;99.90;;;;;;4710633;30;20156;-84
2022/11/24 16:33:43;;;;;;;20.60;4.40;;;8.30;99.90;;;;;;4712061;30;20080;-82
2022/11/24 16:36:33;;;;;;;19.48;3.33;;;8.40;99.90;;;;;;4713969;30;20103;-85
2022/11/24 16:38:59;;;;;;;16.77;3.40;;;8.50;99.90;;;;;;4752870;29;20054;-83
2022/11/24 16:41:39;;;;;;;21.52;3.47;;;8.40;99.90;;;;;;4766078;29;20058;-85
2022/11/24 16:44:20;;;;;;;20.25;4.05;;;8.90;99.90;;;;;;4806435;29;20048;-84
2022/11/24 16:47:13;;;;;;;14.95;3.78;;;8.20;99.90;;;;;;4718362;30;20541;-83
2022/11/24 16:50:07;;;;;;;17.63;3.88;;;8.20;99.90;;;;;;4756209;29;20100;-84
2022/11/24 16:52:52;;;;;;;19.35;3.05;;;8.20;99.90;;;;;;4810906;29;20061;-85
2022/11/24 16:56:00;;;;;;;18.73;4.07;;;8.20;99.90;;;;;;4790573;29;20054;-86
2022/11/24 16:58:50;;;;;;;19.23;4.78;;;8.20;99.90;;;;;;4779547;29;20058;-86
2022/11/24 17:01:57;;;;;;;18.88;3.50;;;8.40;99.90;;;;;;4761323;29;20050;-85
2022/11/24 17:04:51;;;;;;;19.05;4.50;;;8.20;99.90;;;;;;4779411;29;20047;-84
2022/11/24 17:18:49;;;;;;;17.90;2.88;;;8.50;99.90;;;;;;4746894;30;20044;-86
2022/11/24 17:21:48;;;;;;;24.35;3.85;;;8.40;99.90;;;;;;4729755;30;20051;-85
2022/11/24 17:24:22;;;;;;;21.10;3.95;;;8.10;99.90;;;;;;4740785;30;20044;-85
2022/11/24 17:27:03;;;;;;;19.48;3.25;;;8.10;99.90;;;;;;4752583;30;20044;-84
2022/11/24 17:30:02;;;;;;;16.50;3.70;;;8.10;99.90;;;;;;4728716;30;20143;-86
2022/11/24 17:32:42;;;;;;;24.33;4.75;;;8.30;99.90;;;;;;4773315;29;20047;-84
2022/11/24 17:35:10;;;;;;;22.42;3.67;;;8.20;99.90;;;;;;4766383;29;20051;-85
2022/11/24 17:37:37;;;;;;;22.58;3.75;;;8.10;99.90;;;;;;4776020;29;20057;-84
2022/11/24 17:40:28;;;;;;;18.25;3.47;;;8.10;99.90;;;;;;4820787;29;20073;-85
2022/11/24 17:46:04;;;;;;;19.83;4.10;;;8.20;99.90;;;;;;4820075;29;20042;-85
2022/11/24 17:48:45;;;;;;;19.50;4.90;;;8.20;99.90;;;;;;4816459;29;20085;-84
2022/11/24 17:51:24;;;;;;;16.45;4.65;;;8.20;99.90;;;;;;4811509;29;20057;-86
2022/11/24 17:57:43;;;;;;;16.88;4.00;;;8.20;99.90;;;;;;4819538;29;20061;-86
2022/11/24 18:19:17;;;;;;;20.33;4.20;;;8.00;99.90;;;;;;4818612;29;20516;-86
2022/11/24 18:22:07;;;;;;;23.45;4.03;;;8.00;99.90;;;;;;4812704;29;20501;-85
2022/11/24 18:24:32;;;;;;;20.52;3.67;;;8.00;99.90;;;;;;4801299;29;20047;-81
2022/11/24 18:27:03;;;;;;;18.35;4.03;;;7.90;99.90;;;;;;4768591;29;20047;-83
2022/11/24 18:29:31;;;;;;;19.55;3.28;;;7.90;99.90;;;;;;4791439;29;20058;-83
2022/11/24 18:32:02;;;;;;;17.50;3.65;;;8.00;99.90;;;;;;4802411;29;20792;-84
2022/11/24 18:34:28;;;;;;;18.20;3.85;;;7.90;99.90;;;;;;4818559;29;20050;-82
2022/11/24 18:36:53;;;;;;;13.93;3.58;;;7.90;99.90;;;;;;4779443;29;20530;-83
2022/11/24 18:39:27;;;;;;;20.70;3.63;;;8.10;99.90;;;;;;4801377;29;20050;-84
2022/11/24 18:41:53;;;;;;;18.65;3.58;;;7.90;99.90;;;;;;4802067;29;20057;-83
2022/11/24 18:44:23;;;;;;;23.27;3.65;;;7.90;99.90;;;;;;4800894;29;20085;-84
2022/11/24 18:47:21;;;;;;;16.92;4.07;;;7.90;99.90;;;;;;4799380;29;20774;-84
2022/11/24 18:49:47;;;;;;;17.33;4.55;;;7.90;99.90;;;;;;4788266;29;20128;-84
2022/11/24 18:52:22;;;;;;;23.13;5.32;;;7.90;99.90;;;;;;4788154;29;20517;-84
2022/11/24 18:55:02;;;;;;;17.85;4.15;;;7.80;99.90;;;;;;4819286;29;20081;-84
2022/11/24 18:57:38;;;;;;;20.48;3.85;;;7.80;99.90;;;;;;4820179;29;20145;-86
2022/11/24 19:00:13;;;;;;;12.77;3.88;;;7.80;99.90;;;;;;4814151;29;20046;-84
2022/11/24 19:02:39;;;;;;;21.70;5.00;;;7.70;99.90;;;;;;4787496;29;20050;-85
2022/11/24 19:05:14;;;;;;;29.02;5.35;;;7.70;99.90;;;;;;4802270;29;20310;-83
2022/11/24 19:07:48;;;;;;;18.40;4.40;;;7.80;99.90;;;;;;4799667;29;20054;-85
2022/11/24 19:10:14;;;;;;;20.92;4.82;;;7.70;99.90;;;;;;4795102;29;20671;-85
2022/11/24 19:13:06;;;;;;;16.73;4.68;;;7.70;99.90;;;;;;4785076;29;20046;-85
2022/11/24 19:19:15;;;;;;;13.77;3.47;;;7.60;99.90;;;;;;4810954;29;20057;-83
2022/11/24 19:22:01;;;;;;;20.10;4.40;;;7.70;99.90;;;;;;4786143;29;20057;-85
2022/11/24 19:24:29;;;;;;;20.23;5.63;;;7.70;99.90;;;;;;4819403;29;20054;-84
2022/11/24 19:26:57;;;;;;;17.42;5.18;;;7.60;99.90;;;;;;4797477;29;20166;-85
2022/11/24 19:29:48;;;;;;;16.95;4.63;;;7.70;99.90;;;;;;4801908;29;20074;-87
2022/11/24 19:32:21;;;;;;;21.73;4.55;;;7.70;99.90;;;;;;4814138;29;20049;-85
2022/11/24 19:34:46;;;;;;;23.13;5.80;;;7.60;99.90;;;;;;4788636;29;20042;-85
2022/11/24 19:37:22;;;;;;;22.58;5.28;;;7.60;99.90;;;;;;4800286;29;20137;-84
2022/11/24 19:39:48;;;;;;;17.90;4.57;;;7.70;99.90;;;;;;4784173;29;20110;-83
2022/11/24 19:42:14;;;;;;;24.02;4.53;;;7.60;99.90;;;;;;4781636;29;20054;-83
2022/11/24 19:44:40;;;;;;;15.40;3.38;;;7.60;99.90;;;;;;4784649;29;20054;-84
2022/11/24 19:47:05;;;;;;;22.05;4.10;;;7.60;99.90;;;;;;4796937;29;20072;-84
2022/11/24 19:49:31;;;;;;;21.67;4.20;;;7.50;99.90;;;;;;4800851;29;20059;-84
2022/11/24 19:52:16;;;;;;;23.00;3.83;;;7.60;99.90;;;;;;4802645;29;20050;-85
2022/11/24 19:54:45;;;;;;;22.07;3.70;;;7.60;99.90;;;;;;4801499;29;20046;-83
2022/11/24 19:57:25;;;;;;;27.20;4.85;;;7.50;99.90;;;;;;4802987;29;20050;-84
2022/11/24 20:00:00;;;;;;;21.83;4.47;;;7.50;99.90;;;;;;4802775;29;20181;-84
2022/11/24 20:02:57;;;;;;;21.27;4.10;;;7.50;99.90;;;;;;4805378;29;20038;-85
2022/11/24 20:05:35;;;;;;;17.33;3.33;;;7.50;99.90;;;;;;4804452;29;20072;-84
2022/11/24 20:08:00;;;;;;;18.58;4.22;;;7.40;99.90;;;;;;4807230;29;20049;-85
2022/11/24 20:10:26;;;;;;;19.63;3.30;;;7.40;99.90;;;;;;4801792;29;20050;-85
2022/11/24 20:12:52;;;;;;;19.92;4.50;;;7.50;99.90;;;;;;4803327;29;20058;-85
2022/11/24 20:15:17;;;;;;;19.05;4.68;;;7.40;99.90;;;;;;4800900;29;20062;-84
2022/11/24 20:17:43;;;;;;;21.98;3.95;;;7.40;99.90;;;;;;4803234;29;20050;-85
2022/11/24 20:20:09;;;;;;;17.52;3.70;;;7.40;99.90;;;;;;4816961;29;20124;-86